createdAt,value
2019-05-11T00:01:02.959Z,0.40
2019-05-11T00:03:32.875Z,0.40
2019-05-11T00:06:05.459Z,0.40
2019-05-11T00:08:34.578Z,0.40
2019-05-11T00:11:03.676Z,0.40
2019-05-11T00:13:32.769Z,0.40
2019-05-11T00:16:02.255Z,0.40
2019-05-11T00:18:33.192Z,2.37
2019-05-11T00:21:02.508Z,2.20
2019-05-11T00:23:32.623Z,2.40
2019-05-11T00:26:03.695Z,3.10
2019-05-11T00:28:33.083Z,2.53
2019-05-11T00:31:02.468Z,2.67
2019-05-11T00:33:31.604Z,3.03
2019-05-11T00:36:00.662Z,3.03
2019-05-11T00:38:30.052Z,3.50
2019-05-11T00:40:59.122Z,3.33
2019-05-11T00:43:28.457Z,4.00
2019-05-11T00:45:58.154Z,4.20
2019-05-11T00:48:27.209Z,3.67
2019-05-11T00:50:56.255Z,4.47
2019-05-11T00:53:25.564Z,3.50
2019-05-11T00:55:54.907Z,3.00
2019-05-11T00:58:24.245Z,4.10
2019-05-11T01:00:53.293Z,2.80
2019-05-11T01:03:22.864Z,2.30
2019-05-11T01:05:52.225Z,2.40
2019-05-11T01:08:21.282Z,2.50
2019-05-11T01:10:50.358Z,1.87
2019-05-11T01:13:19.364Z,1.93
2019-05-11T01:15:50.174Z,2.40
2019-05-11T01:18:19.501Z,1.70
2019-05-11T01:20:48.561Z,2.90
2019-05-11T01:23:17.595Z,2.50
2019-05-11T01:25:46.887Z,2.13
2019-05-11T01:28:16.293Z,2.63
2019-05-11T01:30:45.355Z,2.33
2019-05-11T01:33:14.423Z,2.20
2019-05-11T01:35:44.197Z,2.07
2019-05-11T01:38:13.797Z,2.07
2019-05-11T01:40:57.619Z,1.63
2019-05-11T01:43:13.773Z,1.90
2019-05-11T01:45:42.828Z,2.30
2019-05-11T01:48:11.884Z,0.40
2019-05-11T01:50:41.180Z,1.97
2019-05-11T01:53:10.613Z,2.47
2019-05-11T01:55:39.848Z,2.00
2019-05-11T01:58:09.629Z,1.70
2019-05-11T02:00:38.598Z,2.20
2019-05-11T02:03:07.856Z,2.13
2019-05-11T02:05:36.873Z,2.20
2019-05-11T02:08:07.106Z,2.63
2019-05-11T02:10:36.375Z,2.27
2019-05-11T02:13:05.288Z,2.50
2019-05-11T02:15:34.581Z,1.83
2019-05-11T02:18:03.532Z,1.90
2019-05-11T02:20:32.470Z,2.73
2019-05-11T02:23:01.398Z,1.93
2019-05-11T02:25:30.574Z,1.97
2019-05-11T02:27:59.482Z,1.67
2019-05-11T02:30:28.894Z,1.70
2019-05-11T02:32:57.794Z,1.80
2019-05-11T02:35:27.054Z,1.50
2019-05-11T02:37:56.754Z,1.73
2019-05-11T02:40:25.818Z,1.50
2019-05-11T02:42:55.740Z,1.73
2019-05-11T02:45:37.862Z,1.87
2019-05-11T02:48:06.879Z,1.40
2019-05-11T02:50:36.716Z,2.40
2019-05-11T02:53:06.102Z,1.53
2019-05-11T02:55:35.996Z,1.10
2019-05-11T02:58:05.394Z,1.90
2019-05-11T03:00:35.600Z,1.03
2019-05-11T03:03:04.961Z,1.30
2019-05-11T03:05:33.925Z,2.33
2019-05-11T03:08:02.867Z,1.50
2019-05-11T03:10:31.773Z,1.67
2019-05-11T03:13:01.243Z,1.53
2019-05-11T03:15:30.208Z,1.27
2019-05-11T03:17:59.613Z,1.27
2019-05-11T03:20:28.870Z,0.40
2019-05-11T03:22:58.141Z,0.50
2019-05-11T03:25:27.435Z,0.40
2019-05-11T03:27:56.739Z,0.40
2019-05-11T03:30:25.776Z,0.40
2019-05-11T03:32:55.384Z,0.40
2019-05-11T03:35:24.921Z,0.40
2019-05-11T03:37:54.190Z,0.40
2019-05-11T03:40:23.534Z,1.23
2019-05-11T03:42:52.760Z,0.40
2019-05-11T03:45:22.483Z,0.50
2019-05-11T03:47:51.525Z,0.40
2019-05-11T03:50:20.818Z,0.40
2019-05-11T03:52:49.883Z,0.90
2019-05-11T03:55:18.801Z,0.40
2019-05-11T03:57:47.860Z,0.40
2019-05-11T04:00:16.928Z,0.40
2019-05-11T04:02:45.930Z,0.40
2019-05-11T04:05:15.210Z,0.40
2019-05-11T04:07:44.429Z,0.50
2019-05-11T04:10:13.629Z,1.80
2019-05-11T04:12:42.914Z,1.47
2019-05-11T04:15:11.885Z,1.57
2019-05-11T04:17:41.351Z,1.43
2019-05-11T04:20:11.750Z,1.30
2019-05-11T04:22:40.957Z,1.33
2019-05-11T04:25:10.037Z,1.23
2019-05-11T04:27:39.418Z,1.20
2019-05-11T04:30:09.250Z,1.20
2019-05-11T04:32:38.174Z,1.53
2019-05-11T04:35:07.215Z,1.40
2019-05-11T04:37:36.469Z,1.47
2019-05-11T04:40:05.467Z,1.47
2019-05-11T04:42:52.834Z,2.27
2019-05-11T04:45:05.871Z,1.27
2019-05-11T04:47:34.864Z,1.40
2019-05-11T04:50:03.938Z,1.60
2019-05-11T04:52:33.518Z,1.57
2019-05-11T04:55:03.187Z,1.80
2019-05-11T04:57:32.442Z,1.33
2019-05-11T05:00:01.784Z,1.70
2019-05-11T05:02:31.083Z,2.60
2019-05-11T05:05:00.551Z,1.80
2019-05-11T05:07:29.774Z,1.40
2019-05-11T05:09:59.283Z,1.40
2019-05-11T05:12:28.509Z,1.30
2019-05-11T05:14:57.494Z,1.97
2019-05-11T05:17:26.440Z,1.40
2019-05-11T05:19:55.390Z,1.63
2019-05-11T05:22:27.728Z,1.90
2019-05-11T05:24:55.318Z,1.77
2019-05-11T05:27:24.250Z,1.83
2019-05-11T05:29:53.174Z,1.47
2019-05-11T05:32:22.196Z,2.60
2019-05-11T05:34:51.537Z,1.90
2019-05-11T05:37:20.481Z,2.00
2019-05-11T05:39:49.430Z,2.13
2019-05-11T05:42:18.347Z,2.17
2019-05-11T05:44:47.387Z,1.83
2019-05-11T05:47:16.308Z,2.83
2019-05-11T05:49:45.622Z,2.63
2019-05-11T05:52:14.654Z,2.40
2019-05-11T05:54:43.565Z,2.33
2019-05-11T05:57:12.774Z,2.73
2019-05-11T05:59:41.817Z,2.50
2019-05-11T06:02:10.779Z,2.60
2019-05-11T06:04:40.347Z,2.63
2019-05-11T06:07:10.029Z,2.60
2019-05-11T06:09:39.815Z,2.40
2019-05-11T06:12:08.740Z,4.37
2019-05-11T06:14:37.619Z,2.13
2019-05-11T06:17:07.097Z,2.30
2019-05-11T06:19:36.038Z,2.17
2019-05-11T06:22:05.024Z,3.33
2019-05-11T06:24:34.259Z,1.87
2019-05-11T06:27:03.187Z,2.17
2019-05-11T06:29:32.456Z,2.20
2019-05-11T06:32:02.558Z,2.03
2019-05-11T06:34:32.066Z,2.90
2019-05-11T06:37:01.377Z,2.40
2019-05-11T06:39:30.626Z,2.33
2019-05-11T06:41:59.609Z,1.63
2019-05-11T06:44:29.165Z,1.50
2019-05-11T06:46:58.738Z,1.83
2019-05-11T06:49:28.048Z,2.00
2019-05-11T06:51:57.316Z,1.70
2019-05-11T06:54:26.660Z,1.60
2019-05-11T06:56:56.184Z,1.60
2019-05-11T06:59:25.176Z,2.00
2019-05-11T07:01:54.377Z,1.60
2019-05-11T07:04:23.649Z,1.57
2019-05-11T07:06:52.845Z,1.57
2019-05-11T07:09:22.370Z,1.77
2019-05-11T07:11:51.554Z,1.70
2019-05-11T07:14:21.630Z,1.70
2019-05-11T07:16:50.745Z,2.50
2019-05-11T07:19:20.039Z,1.57
2019-05-11T07:21:49.082Z,1.50
2019-05-11T07:24:18.300Z,1.63
2019-05-11T07:26:47.230Z,1.70
2019-05-11T07:29:16.745Z,1.47
2019-05-11T07:31:45.982Z,1.70
2019-05-11T07:34:15.200Z,1.20
2019-05-11T07:36:44.674Z,1.93
2019-05-11T07:39:13.705Z,2.23
2019-05-11T07:41:42.925Z,1.83
2019-05-11T07:44:12.581Z,2.30
2019-05-11T07:46:41.486Z,1.50
2019-05-11T07:49:10.733Z,1.80
2019-05-11T07:51:40.138Z,3.00
2019-05-11T07:54:09.240Z,1.93
2019-05-11T07:56:39.253Z,3.20
2019-05-11T07:59:08.520Z,1.60
2019-05-11T08:01:38.844Z,1.60
2019-05-11T08:04:08.684Z,1.77
2019-05-11T08:06:39.055Z,1.83
2019-05-11T08:09:08.802Z,1.80
2019-05-11T08:11:38.879Z,1.40
2019-05-11T08:14:08.363Z,1.20
2019-05-11T08:16:38.998Z,1.50
2019-05-11T08:19:10.702Z,1.10
2019-05-11T08:21:39.065Z,1.40
2019-05-11T08:24:09.177Z,1.03
2019-05-11T08:26:39.057Z,1.30
2019-05-11T08:29:08.686Z,2.10
2019-05-11T08:31:38.434Z,1.00
2019-05-11T08:34:08.904Z,1.27
2019-05-11T08:36:38.069Z,1.47
2019-05-11T08:39:07.870Z,1.60
2019-05-11T08:41:38.505Z,1.07
2019-05-11T08:44:08.875Z,1.43
2019-05-11T08:46:38.702Z,1.37
2019-05-11T08:49:08.693Z,1.40
2019-05-11T08:51:38.906Z,1.60
2019-05-11T08:54:08.947Z,1.50
2019-05-11T08:56:38.461Z,1.43
2019-05-11T08:59:08.186Z,1.30
2019-05-11T09:01:39.287Z,1.47
2019-05-11T09:04:09.128Z,1.40
2019-05-11T09:06:38.207Z,1.47
2019-05-11T09:09:08.931Z,1.23
2019-05-11T09:11:38.903Z,1.30
2019-05-11T09:14:08.566Z,1.77
2019-05-11T09:16:38.496Z,1.63
2019-05-11T09:19:08.758Z,1.00
2019-05-11T09:21:38.569Z,1.20
2019-05-11T09:24:08.559Z,1.40
2019-05-11T09:26:38.885Z,1.43
2019-05-11T09:29:08.803Z,1.60
2019-05-11T09:31:38.307Z,1.23
2019-05-11T09:34:08.945Z,1.90
2019-05-11T09:36:39.276Z,1.70
2019-05-11T09:39:09.035Z,1.13
2019-05-11T09:41:38.546Z,1.30
2019-05-11T09:44:08.954Z,1.80
2019-05-11T09:46:38.696Z,1.10
2019-05-11T09:49:08.127Z,1.53
2019-05-11T09:51:38.070Z,1.47
2019-05-11T09:54:08.116Z,1.37
2019-05-11T09:56:38.302Z,1.13
2019-05-11T09:59:08.897Z,1.00
2019-05-11T10:01:38.281Z,0.67
2019-05-11T10:04:08.985Z,1.23
2019-05-11T10:06:38.964Z,0.83
2019-05-11T10:09:08.757Z,1.00
2019-05-11T10:11:39.868Z,0.80
2019-05-11T10:14:08.690Z,0.90
2019-05-11T10:16:38.674Z,1.47
2019-05-11T10:19:08.692Z,1.07
2019-05-11T10:21:38.447Z,1.10
2019-05-11T10:24:08.637Z,1.17
2019-05-11T10:26:38.571Z,1.17
2019-05-11T10:29:08.122Z,1.10
2019-05-11T10:31:38.576Z,0.83
2019-05-11T10:34:08.707Z,0.83
2019-05-11T10:36:38.622Z,1.43
2019-05-11T10:39:08.369Z,0.90
2019-05-11T10:41:38.748Z,0.90
2019-05-11T10:44:08.621Z,1.40
2019-05-11T10:46:38.146Z,1.13
2019-05-11T10:49:07.993Z,0.70
2019-05-11T10:51:38.373Z,0.40
2019-05-11T10:54:08.624Z,0.40
2019-05-11T10:56:38.841Z,0.40
2019-05-11T10:59:08.119Z,0.40
2019-05-11T11:01:38.085Z,0.40
2019-05-11T11:04:08.032Z,0.47
2019-05-11T11:06:38.681Z,0.90
2019-05-11T11:09:08.677Z,0.40
2019-05-11T11:11:38.361Z,0.67
2019-05-11T11:14:08.712Z,0.40
2019-05-11T11:16:41.977Z,0.90
2019-05-11T11:19:08.782Z,0.70
2019-05-11T11:21:38.459Z,0.40
2019-05-11T11:24:07.737Z,0.47
2019-05-11T11:26:37.945Z,0.40
2019-05-11T11:29:08.551Z,0.40
2019-05-11T11:31:38.117Z,0.33
2019-05-11T11:34:08.365Z,0.40
2019-05-11T11:36:37.690Z,1.30
2019-05-11T11:39:08.614Z,0.40
2019-05-11T11:41:37.981Z,0.50
2019-05-11T11:44:07.996Z,0.50
2019-05-11T11:46:50.739Z,0.40
2019-05-11T11:49:08.516Z,0.40
2019-05-11T11:51:38.129Z,0.40
2019-05-11T11:54:08.696Z,0.40
2019-05-11T11:56:38.551Z,0.40
2019-05-11T11:59:08.522Z,0.40
2019-05-11T12:01:38.406Z,0.40
2019-05-11T12:04:08.378Z,0.40
2019-05-11T12:06:38.580Z,0.40
2019-05-11T12:09:08.757Z,0.30
2019-05-11T12:11:38.536Z,0.40
2019-05-11T12:14:08.693Z,0.40
2019-05-11T12:16:38.775Z,0.40
2019-05-11T12:19:08.405Z,0.40
2019-05-11T12:21:38.122Z,0.40
2019-05-11T12:24:08.185Z,0.40
2019-05-11T12:26:38.901Z,0.90
2019-05-11T12:29:08.772Z,1.30
2019-05-11T12:31:38.073Z,1.03
2019-05-11T12:34:08.844Z,0.30
2019-05-11T12:36:38.744Z,0.73
2019-05-11T18:39:48.423Z,0.40
2019-05-11T18:42:18.640Z,0.40
2019-05-11T18:44:48.328Z,0.37
2019-05-11T18:47:18.723Z,0.40
2019-05-11T18:49:48.523Z,0.50
2019-05-11T18:52:18.916Z,0.40
2019-05-11T18:54:48.837Z,0.40
2019-05-11T18:57:18.873Z,0.40
2019-05-11T18:59:48.687Z,0.40
2019-05-11T19:02:18.194Z,0.40
2019-05-11T19:04:48.787Z,0.40
2019-05-11T19:07:20.256Z,0.40
2019-05-11T19:09:49.803Z,0.40
2019-05-11T19:12:19.270Z,0.40
2019-05-11T19:14:48.679Z,0.40
2019-05-11T19:17:18.220Z,0.40
2019-05-11T19:19:48.603Z,0.40
2019-05-11T19:22:18.406Z,4.10
2019-05-11T19:24:47.872Z,0.40
2019-05-11T19:27:18.534Z,0.40
2019-05-11T19:29:48.433Z,0.40
2019-05-11T19:32:19.120Z,0.40
2019-05-11T19:34:49.167Z,0.40
2019-05-11T19:37:18.855Z,0.40
2019-05-11T19:39:50.795Z,0.40
2019-05-11T19:42:20.048Z,0.40
2019-05-11T19:44:49.950Z,0.40
2019-05-11T19:47:19.110Z,0.40
2019-05-11T19:49:48.822Z,0.97
2019-05-11T19:52:18.328Z,0.40
2019-05-11T19:54:48.780Z,0.40
2019-05-11T19:57:18.576Z,0.40
2019-05-11T19:59:48.184Z,0.40
2019-05-11T20:02:18.435Z,0.40
2019-05-11T20:04:48.223Z,0.40
2019-05-11T20:07:18.601Z,0.40
2019-05-11T20:09:48.358Z,0.40
2019-05-11T20:12:18.080Z,0.40
2019-05-11T20:14:48.277Z,0.40
2019-05-11T20:17:18.297Z,0.40
2019-05-11T20:19:49.086Z,0.40
2019-05-11T20:22:18.970Z,0.40
2019-05-11T20:24:48.241Z,0.40
2019-05-11T20:27:18.585Z,0.40
2019-05-11T20:29:48.581Z,0.40
2019-05-11T20:32:18.672Z,0.40
2019-05-11T20:34:48.352Z,0.40
2019-05-11T20:37:18.220Z,0.40
2019-05-11T20:39:48.158Z,0.40
2019-05-11T20:42:18.171Z,0.40
2019-05-11T20:44:47.519Z,0.40
2019-05-11T20:47:17.838Z,0.40
2019-05-11T20:49:48.167Z,0.40
2019-05-11T20:52:17.817Z,1.17
2019-05-11T20:54:47.707Z,0.40
2019-05-11T20:57:18.051Z,0.40
2019-05-11T20:59:47.075Z,0.40
2019-05-11T21:02:18.256Z,0.40
2019-05-11T21:04:49.052Z,0.40
2019-05-11T21:07:19.968Z,0.40
2019-05-11T21:09:49.383Z,0.40
2019-05-11T21:12:18.724Z,0.57
2019-05-11T21:14:48.483Z,0.70
2019-05-11T21:17:18.283Z,0.40
2019-05-11T21:19:47.880Z,0.40
2019-05-11T21:22:17.306Z,0.40
2019-05-11T21:24:49.449Z,0.70
2019-05-11T21:27:20.163Z,0.70
2019-05-11T21:29:49.217Z,0.40
2019-05-11T21:32:18.493Z,0.40
2019-05-11T21:34:48.952Z,0.40
2019-05-11T21:37:18.374Z,0.40
2019-05-11T21:39:48.185Z,0.70
2019-05-11T21:42:18.137Z,0.40
2019-05-11T21:44:47.227Z,0.40
2019-05-11T21:47:18.295Z,0.40
2019-05-11T21:49:48.506Z,0.60
2019-05-11T21:52:18.583Z,0.40
2019-05-11T21:54:49.115Z,0.40
2019-05-11T21:57:18.766Z,0.40
2019-05-11T21:59:48.488Z,0.90
2019-05-11T22:02:18.521Z,0.70
2019-05-11T22:04:48.026Z,0.63
2019-05-11T22:07:17.166Z,0.40
2019-05-11T22:09:46.573Z,0.40
2019-05-11T22:12:18.594Z,0.40
2019-05-11T22:14:48.918Z,0.40
2019-05-11T22:17:18.310Z,0.97
2019-05-11T22:19:48.067Z,0.77
2019-05-11T22:22:24.481Z,0.70
2019-05-11T22:24:48.417Z,0.80
2019-05-11T22:27:18.507Z,0.40
2019-05-11T22:29:48.479Z,1.37
2019-05-11T22:32:17.960Z,0.40
2019-05-11T22:34:47.932Z,0.40
2019-05-11T22:37:17.055Z,0.40
2019-05-11T22:39:45.996Z,0.40
2019-05-11T22:42:15.254Z,1.20
2019-05-11T22:44:44.814Z,1.00
2019-05-11T22:47:14.188Z,1.10
2019-05-11T22:49:43.147Z,1.00
2019-05-11T22:52:12.149Z,1.20
2019-05-11T22:54:41.089Z,0.90
2019-05-11T22:57:10.286Z,1.20
2019-05-11T22:59:39.253Z,1.50
2019-05-11T23:02:10.847Z,1.40
2019-05-11T23:04:39.895Z,1.47
2019-05-11T23:07:08.816Z,1.53
2019-05-11T23:09:38.246Z,1.00
2019-05-11T23:12:09.046Z,1.60
2019-05-11T23:14:38.152Z,1.73
2019-05-11T23:17:08.152Z,1.70
2019-05-11T23:19:38.094Z,3.87
2019-05-11T23:22:08.266Z,2.23
2019-05-11T23:24:37.577Z,2.57
2019-05-11T23:27:08.029Z,1.90
2019-05-11T23:29:38.367Z,2.60
2019-05-11T23:32:08.647Z,2.37
2019-05-11T23:34:38.788Z,2.50
2019-05-11T23:37:08.191Z,2.30
2019-05-11T23:39:38.689Z,2.20
2019-05-11T23:42:08.224Z,2.50
2019-05-11T23:44:37.194Z,2.57
2019-05-11T23:47:06.439Z,2.47
2019-05-11T23:49:35.417Z,2.77
2019-05-11T23:52:04.646Z,3.10
2019-05-11T23:54:33.862Z,3.17
2019-05-11T23:57:03.569Z,3.17
2019-05-11T23:59:32.754Z,3.00
